Aérodrome :
LOGIN :

S'inscrire | Disclaimer

   EN    FR    IT 

 










Légende :    VFR   VFR Marginal   IFR   IFR Intensif   IFR Très Intensif
Visi : 
Plafond : 
>= 8 km
>= 3000ft
5 à 8 km
1000 à 3000 ft
1500m à 5 km
500 à 1000 ft
800 à 1500m
200 à 500 ft
< 800m
< 200 ft
Symboles :   Orages  Brouillard  Fortes neiges  Fortes précipitations  Vent > 20 kt
SIGMETs :   Divers  Orages  Givrage  Turbulence  Onde Orograph.  Cendres Volcan.







- Altitude de l'aérodrome : 11 ft
- Code IATA : MJV


LELC - Murcia San Javier

DERNIER METAR :
  • 252000Z 19009KT 9999 FEW030 18/11 Q1007 NOSIG

METARs EXPIRÉS :
  • 251900Z 21005KT 9999 FEW030 19/10 Q1007 NOSIG
  • 251800Z 20010KT 170V230 CAVOK 20/07 Q1007 NOSIG

TAF TAF LELC
Valide du 25 à 18h jusqu'au 26 à 18h UTC


251700Z 2518/2618 21009KT 9999 FEW030 TX24/2612Z TN12/2606Z
Pas de NOTAMs connus pour ce terrain.
1 SIGMET publié pour la FIR Barcelona (LECB) :
 
Orages noyés dans la masse
LECB SIGMET 4 VALID 252005/260000 LEVA
LECB BARCELONA FIR/UIR EMBD TS OBS AT 2005Z W OF LINE N4110 E00010 - N3940 W00030 TOP FL340 MOV NE NC=



MET'MAP, la Météo Aéronautique d'un coup d'oeil ! - Copyright ORBIFLY Décembre 2007 - Disclaimer

ORBIFLY MET'MAP TEAM :

Programmation & Développement : Alexandra Zaïnal
Conception & Développement : Baudouin d'Aumeries
Co-Programmation & Développement : Marc-Olivier Méhu
Soutien technique & logistique : Manuel Goepfert

Contact : metmap@orbifly.com




SOURCES & CREDITS :

   NOAA